createdAt,value
2022-08-05T00:02:34.801Z,10.05
2022-08-05T00:06:04.837Z,3.13
2022-08-05T00:09:00.364Z,4.35
2022-08-05T00:12:03.059Z,7.10
2022-08-05T00:15:56.263Z,8.75
2022-08-05T00:18:32.037Z,5.00
2022-08-05T00:21:35.932Z,7.80
2022-08-05T00:24:38.697Z,12.48
2022-08-05T00:27:45.262Z,6.88
2022-08-05T00:30:51.930Z,5.88
2022-08-05T00:34:54.614Z,4.97
2022-08-05T00:37:18.488Z,8.65
2022-08-05T00:40:26.960Z,6.07
2022-08-05T00:43:41.588Z,7.55
2022-08-05T00:46:54.252Z,6.07
2022-08-05T00:50:06.816Z,6.05
2022-08-05T00:54:01.110Z,7.60
2022-08-05T00:56:32.235Z,5.22
2022-08-05T00:59:44.256Z,6.35
2022-08-05T01:02:47.267Z,7.22
2022-08-05T01:05:55.063Z,7.05
2022-08-05T01:08:57.530Z,13.35
2022-08-05T01:12:05.156Z,8.38
2022-08-05T01:15:35.445Z,8.82
2022-08-05T01:18:43.165Z,7.00
2022-08-05T01:22:18.901Z,8.98
2022-08-05T01:25:55.750Z,10.07
2022-08-05T01:29:04.268Z,6.70
2022-08-05T01:32:12.742Z,3.88
2022-08-05T01:35:50.989Z,5.43
2022-08-05T01:38:50.885Z,6.10
2022-08-05T01:41:55.185Z,4.00
2022-08-05T01:45:00.250Z,6.20
2022-08-05T01:48:10.433Z,5.57
2022-08-05T01:51:15.514Z,6.25
2022-08-05T01:54:25.636Z,9.45
2022-08-05T01:58:10.720Z,5.72
2022-08-05T02:00:57.579Z,4.93
2022-08-05T02:04:01.488Z,7.32
2022-08-05T02:07:04.406Z,4.18
2022-08-05T02:10:10.876Z,5.10
2022-08-05T02:13:27.762Z,4.03
2022-08-05T02:16:46.257Z,7.57
2022-08-05T02:20:01.026Z,5.90
2022-08-05T02:23:09.559Z,4.50
2022-08-05T02:26:17.234Z,6.43
2022-08-05T02:29:26.058Z,6.05
2022-08-05T02:32:50.351Z,6.72
2022-08-05T02:35:56.184Z,5.82
2022-08-05T02:39:03.827Z,7.50
2022-08-05T02:42:12.438Z,5.97
2022-08-05T02:45:52.951Z,6.00
2022-08-05T02:48:54.934Z,5.47
2022-08-05T02:52:02.892Z,6.05
2022-08-05T02:55:10.758Z,4.72
2022-08-05T02:58:17.017Z,7.90
2022-08-05T03:01:27.043Z,6.45
2022-08-05T03:04:31.748Z,4.90
2022-08-05T03:07:59.435Z,6.35
2022-08-05T03:11:53.097Z,5.72
2022-08-05T03:14:21.015Z,5.25
2022-08-05T03:17:23.874Z,4.65
2022-08-05T03:20:28.909Z,7.80
2022-08-05T03:23:32.266Z,5.82
2022-08-05T03:26:37.882Z,7.90
2022-08-05T03:29:45.325Z,7.95
2022-08-05T03:33:06.260Z,4.38
2022-08-05T03:36:12.068Z,7.55
2022-08-05T03:39:20.273Z,5.68
2022-08-05T03:42:32.093Z,4.50
2022-08-05T03:45:55.279Z,7.88
2022-08-05T03:48:58.993Z,5.75
2022-08-05T03:52:38.912Z,6.57
2022-08-05T03:56:05.238Z,10.70
2022-08-05T03:59:07.219Z,5.93
2022-08-05T04:02:14.911Z,6.43
2022-08-05T04:05:20.758Z,8.95
2022-08-05T04:08:36.129Z,8.00
2022-08-05T04:11:47.351Z,6.38
2022-08-05T04:14:53.468Z,5.72
2022-08-05T04:18:03.118Z,8.02
2022-08-05T04:21:06.957Z,5.22
2022-08-05T04:24:15.002Z,5.80
2022-08-05T04:27:33.075Z,6.60
2022-08-05T04:30:45.045Z,6.47
2022-08-05T04:34:19.047Z,5.20
2022-08-05T04:37:10.197Z,5.03
2022-08-05T04:40:14.738Z,8.55
2022-08-05T04:43:22.244Z,5.38
2022-08-05T04:46:28.423Z,6.80
2022-08-05T04:50:01.112Z,5.55
2022-08-05T04:52:53.577Z,6.93
2022-08-05T04:56:14.682Z,5.53
2022-08-05T04:59:22.931Z,4.80
2022-08-05T05:02:43.179Z,5.67
2022-08-05T05:06:38.918Z,5.07
2022-08-05T05:09:08.673Z,6.35
2022-08-05T05:12:12.811Z,6.97
2022-08-05T05:15:17.398Z,5.97
2022-08-05T05:18:38.049Z,5.00
2022-08-05T05:21:40.512Z,4.78
2022-08-05T05:24:42.967Z,6.47
2022-08-05T05:28:02.057Z,5.95
2022-08-05T05:31:05.782Z,6.18
2022-08-05T05:34:11.474Z,9.07
2022-08-05T05:37:15.164Z,5.70
2022-08-05T05:40:20.104Z,8.27
2022-08-05T05:43:56.872Z,5.78
2022-08-05T05:46:47.819Z,8.35
2022-08-05T05:49:56.684Z,8.63
2022-08-05T05:53:21.376Z,10.07
2022-08-05T05:56:31.422Z,7.55
2022-08-05T05:59:40.396Z,8.27
2022-08-05T06:02:43.655Z,9.60
2022-08-05T06:05:46.694Z,8.25
2022-08-05T06:08:56.870Z,16.38
2022-08-05T06:12:02.457Z,6.05
2022-08-05T06:15:09.398Z,10.13
2022-08-05T06:18:31.436Z,8.18
2022-08-05T06:21:36.937Z,7.57
2022-08-05T06:24:48.199Z,9.50
2022-08-05T06:28:11.645Z,10.15
2022-08-05T06:31:18.064Z,5.28
2022-08-05T06:34:24.285Z,5.60
2022-08-05T06:37:56.424Z,6.78
2022-08-05T06:40:52.722Z,6.07
2022-08-05T06:44:00.241Z,6.97
2022-08-05T06:47:04.554Z,4.85
2022-08-05T06:50:17.331Z,6.13
2022-08-05T06:53:28.009Z,5.68
2022-08-05T06:56:34.639Z,3.92
2022-08-05T06:59:38.604Z,5.22
2022-08-05T07:02:47.452Z,4.68
2022-08-05T07:05:56.469Z,4.43
2022-08-05T07:08:59.693Z,4.88
2022-08-05T07:12:07.562Z,4.65
2022-08-05T07:15:34.520Z,4.20
2022-08-05T07:18:52.262Z,3.72
2022-08-05T07:22:00.038Z,6.78
2022-08-05T07:25:22.922Z,4.68
2022-08-05T07:28:27.170Z,5.03
2022-08-05T07:31:40.967Z,2.95
2022-08-05T07:34:57.900Z,4.68
2022-08-05T07:38:01.185Z,2.53
2022-08-05T07:42:08.760Z,3.38
2022-08-05T07:44:28.313Z,3.40
2022-08-05T07:47:42.259Z,3.67
2022-08-05T07:50:46.530Z,3.78
2022-08-05T07:53:50.438Z,4.47
2022-08-05T07:57:02.036Z,8.48
2022-08-05T08:00:16.365Z,4.90
2022-08-05T08:03:18.827Z,7.13
2022-08-05T08:06:28.323Z,3.58
2022-08-05T08:09:30.830Z,3.80
2022-08-05T08:12:48.827Z,7.57
2022-08-05T08:16:34.490Z,5.30
2022-08-05T08:20:00.446Z,4.60
2022-08-05T08:22:38.625Z,4.63
2022-08-05T08:26:00.578Z,4.70
2022-08-05T08:29:21.883Z,2.90
2022-08-05T08:32:28.004Z,3.65
2022-08-05T08:35:35.208Z,8.40
2022-08-05T08:38:53.276Z,5.15
2022-08-05T08:41:59.562Z,4.85
2022-08-05T08:45:24.143Z,4.55
2022-08-05T08:49:03.102Z,5.72
2022-08-05T08:52:02.821Z,8.63
2022-08-05T08:55:13.145Z,9.65
2022-08-05T08:58:16.940Z,9.00
2022-08-05T09:01:20.148Z,7.13
2022-08-05T09:04:23.006Z,6.07
2022-08-05T09:07:39.825Z,5.13
2022-08-05T09:10:57.559Z,6.60
2022-08-05T09:14:54.798Z,6.35
2022-08-05T09:17:42.618Z,4.50
2022-08-05T09:20:47.101Z,5.47
2022-08-05T09:24:03.617Z,5.85
2022-08-05T09:27:10.718Z,4.15
2022-08-05T09:30:23.431Z,5.03
2022-08-05T09:33:35.249Z,5.70
2022-08-05T09:36:53.949Z,5.32
2022-08-05T09:39:57.013Z,6.00
2022-08-05T09:43:01.582Z,8.18
2022-08-05T09:46:08.812Z,5.72
2022-08-05T09:49:54.360Z,4.30
2022-08-05T09:52:48.367Z,6.43
2022-08-05T09:56:05.241Z,5.80
2022-08-05T09:59:17.497Z,6.63
2022-08-05T10:02:32.089Z,3.65
2022-08-05T10:05:36.014Z,4.93
2022-08-05T10:08:39.541Z,5.60
2022-08-05T10:11:46.019Z,4.60
2022-08-05T10:14:54.515Z,6.28
2022-08-05T10:18:13.277Z,5.95
2022-08-05T10:21:16.509Z,5.20
2022-08-05T10:24:19.438Z,6.07
2022-08-05T10:28:09.425Z,6.35
2022-08-05T10:33:01.487Z,5.25
2022-08-05T10:34:17.156Z,6.15
2022-08-05T10:37:19.882Z,4.43
2022-08-05T10:40:31.496Z,5.75
2022-08-05T10:43:48.529Z,6.53
2022-08-05T10:46:54.354Z,7.40
2022-08-05T10:50:20.526Z,6.18
2022-08-05T10:53:35.476Z,5.18
2022-08-05T10:56:47.174Z,6.30
2022-08-05T11:00:18.132Z,7.15
2022-08-05T11:03:24.750Z,4.68
2022-08-05T11:06:31.156Z,5.45
2022-08-05T11:09:46.691Z,4.97
2022-08-05T11:12:54.235Z,4.50
2022-08-05T11:16:22.376Z,4.53
2022-08-05T11:20:10.753Z,4.25
2022-08-05T11:23:33.063Z,2.83
2022-08-05T11:26:36.548Z,4.68
2022-08-05T11:29:41.531Z,4.25
2022-08-05T11:32:44.034Z,2.63
2022-08-05T11:36:04.449Z,4.00
2022-08-05T11:39:13.646Z,3.92
2022-08-05T11:42:18.255Z,4.22
2022-08-05T11:46:14.424Z,5.90
2022-08-05T11:48:43.731Z,3.45
2022-08-05T11:51:49.895Z,3.25
2022-08-05T11:54:54.974Z,4.93
2022-08-05T11:58:10.289Z,6.35
2022-08-05T12:01:18.995Z,3.63
2022-08-05T12:04:22.336Z,4.25
2022-08-05T12:08:08.341Z,2.33
2022-08-05T12:10:50.487Z,3.72
2022-08-05T12:13:58.718Z,4.00
2022-08-05T12:17:36.152Z,3.58
2022-08-05T12:20:38.411Z,2.40
2022-08-05T12:23:52.994Z,4.78
2022-08-05T12:26:56.700Z,2.55
2022-08-05T12:30:01.169Z,3.00
2022-08-05T12:33:07.113Z,2.67
2022-08-05T12:36:28.689Z,3.80
2022-08-05T12:39:37.620Z,3.85
2022-08-05T12:42:41.513Z,2.97
2022-08-05T12:45:52.255Z,6.20
2022-08-05T12:52:12.388Z,3.00
2022-08-05T12:55:25.618Z,4.75
2022-08-05T12:58:48.553Z,3.28
2022-08-05T13:02:07.410Z,2.63
2022-08-05T13:05:11.152Z,3.45
2022-08-05T13:08:19.213Z,4.88
2022-08-05T13:11:59.814Z,3.20
2022-08-05T13:14:59.165Z,3.35
2022-08-05T13:18:09.303Z,2.92
2022-08-05T13:21:12.438Z,2.25
2022-08-05T13:24:15.103Z,3.15
2022-08-05T13:27:41.370Z,5.30
2022-08-05T13:30:44.042Z,3.03
2022-08-05T13:34:24.219Z,2.55
2022-08-05T13:37:13.305Z,3.60
2022-08-05T13:40:36.682Z,4.30
2022-08-05T13:43:44.219Z,3.33
2022-08-05T13:47:04.583Z,3.50
2022-08-05T13:50:16.243Z,3.58
2022-08-05T13:53:19.282Z,3.70
2022-08-05T13:56:22.107Z,2.80
2022-08-05T13:59:27.537Z,4.43
2022-08-05T14:02:33.289Z,3.83
2022-08-05T14:06:04.993Z,3.25
2022-08-05T14:08:59.529Z,4.03
2022-08-05T14:12:17.496Z,3.15
2022-08-05T14:16:04.402Z,3.75
2022-08-05T14:18:44.141Z,3.30
2022-08-05T14:22:09.501Z,4.30
2022-08-05T14:25:19.419Z,3.55
2022-08-05T14:28:26.314Z,3.33
2022-08-05T14:32:03.296Z,4.18
2022-08-05T14:34:53.864Z,5.32
2022-08-05T14:37:59.173Z,4.57
2022-08-05T14:41:06.827Z,4.07
2022-08-05T14:44:20.455Z,3.50
2022-08-05T14:48:04.857Z,5.22
2022-08-05T14:50:48.992Z,4.75
2022-08-05T14:54:26.241Z,4.80
2022-08-05T14:57:15.064Z,3.40
2022-08-05T15:00:20.022Z,4.38
2022-08-05T15:03:23.897Z,4.43
2022-08-05T15:06:30.303Z,3.60
2022-08-05T15:09:52.169Z,4.05
2022-08-05T15:13:01.188Z,4.47
2022-08-05T15:16:07.412Z,5.60
2022-08-05T15:19:23.798Z,4.43
2022-08-05T15:22:28.169Z,3.45
2022-08-05T15:25:51.615Z,4.10
2022-08-05T15:28:53.883Z,8.18
2022-08-05T15:31:56.397Z,5.97
2022-08-05T15:35:00.173Z,6.47
2022-08-05T15:38:34.952Z,6.85
2022-08-05T15:41:56.142Z,6.05
2022-08-05T15:44:57.361Z,5.85
2022-08-05T15:47:59.873Z,7.38
2022-08-05T15:51:05.820Z,7.15
2022-08-05T15:54:08.642Z,7.03
2022-08-05T15:57:11.263Z,8.43
2022-08-05T16:00:17.416Z,7.00
2022-08-05T16:03:35.301Z,6.20
2022-08-05T16:06:44.852Z,6.32
2022-08-05T16:09:48.541Z,7.78
2022-08-05T16:12:51.491Z,8.98
2022-08-05T16:15:55.012Z,5.13
2022-08-05T16:18:57.777Z,5.85
2022-08-05T16:22:04.663Z,7.55
2022-08-05T16:25:09.835Z,9.95
2022-08-05T16:28:13.594Z,9.05
2022-08-05T16:31:18.263Z,7.93
2022-08-05T16:34:23.722Z,7.60
2022-08-05T16:38:02.492Z,5.18
2022-08-05T16:40:55.579Z,5.93
2022-08-05T16:44:03.240Z,4.13
2022-08-05T16:47:06.954Z,4.45
2022-08-05T16:50:29.501Z,3.40
2022-08-05T16:54:03.049Z,4.00
2022-08-05T16:56:57.842Z,4.10
2022-08-05T17:00:07.380Z,4.47
2022-08-05T17:03:19.569Z,4.78
2022-08-05T17:06:24.627Z,7.22
2022-08-05T17:09:29.539Z,4.07
2022-08-05T17:12:51.145Z,5.65
2022-08-05T17:16:02.772Z,3.97
2022-08-05T17:19:17.135Z,3.42
2022-08-05T17:22:24.586Z,1.92
2022-08-05T17:25:39.833Z,1.50
2022-08-05T17:28:42.997Z,3.10
2022-08-05T17:31:58.206Z,1.63
2022-08-05T17:35:01.578Z,2.83
2022-08-05T17:38:07.655Z,1.30
2022-08-05T17:41:22.673Z,1.02
2022-08-05T17:44:34.731Z,5.35
2022-08-05T17:47:38.246Z,2.47
2022-08-05T17:50:41.579Z,1.05
2022-08-05T17:53:44.176Z,3.83
2022-08-05T17:56:54.731Z,0.95
2022-08-05T18:00:05.541Z,1.45
2022-08-05T18:03:08.754Z,2.65
2022-08-05T18:06:15.037Z,3.67
2022-08-05T18:09:18.307Z,2.13
2022-08-05T18:12:23.988Z,2.33
2022-08-05T18:15:27.540Z,1.67
2022-08-05T18:18:39.717Z,2.30
2022-08-05T18:22:07.356Z,2.95
2022-08-05T18:25:05.672Z,2.05
2022-08-05T18:28:10.775Z,1.50
2022-08-05T18:31:13.262Z,1.60
2022-08-05T18:34:21.774Z,2.42
2022-08-05T18:37:34.481Z,4.80
2022-08-05T18:41:56.592Z,2.03
2022-08-05T18:44:07.977Z,1.77
2022-08-05T18:47:12.162Z,1.52
2022-08-05T18:50:45.145Z,2.58
2022-08-05T18:53:50.754Z,3.03
2022-08-05T18:56:53.258Z,1.60
2022-08-05T19:00:02.425Z,2.47
2022-08-05T19:03:06.726Z,2.85
2022-08-05T19:06:18.636Z,2.75
2022-08-05T19:09:24.130Z,2.30
2022-08-05T19:12:28.060Z,2.50
2022-08-05T19:15:58.167Z,1.63
2022-08-05T19:18:56.749Z,4.20
2022-08-05T19:21:59.538Z,2.00
2022-08-05T19:25:03.322Z,1.63
2022-08-05T19:28:05.875Z,1.55
2022-08-05T19:31:12.900Z,2.03
2022-08-05T19:34:16.394Z,3.42
2022-08-05T19:37:21.311Z,2.15
2022-08-05T19:40:24.999Z,1.50
2022-08-05T19:44:06.490Z,3.75
2022-08-05T19:46:51.366Z,2.60
2022-08-05T19:49:57.260Z,2.63
2022-08-05T19:53:09.677Z,2.80
2022-08-05T19:56:20.402Z,1.63
2022-08-05T19:59:55.368Z,2.97
2022-08-05T20:02:59.121Z,2.90
2022-08-05T20:06:15.774Z,2.72
2022-08-05T20:09:24.219Z,4.13
2022-08-05T20:12:28.272Z,3.42
2022-08-05T20:15:52.597Z,2.97
2022-08-05T20:18:55.338Z,3.38
2022-08-05T20:21:58.161Z,4.03
2022-08-05T20:25:00.756Z,3.08
2022-08-05T20:28:03.340Z,2.40
2022-08-05T20:31:07.467Z,3.85
2022-08-05T20:34:11.670Z,1.88
2022-08-05T20:37:19.285Z,3.17
2022-08-05T20:40:38.044Z,3.58
2022-08-05T20:43:59.850Z,1.77
2022-08-05T20:47:07.618Z,3.53
2022-08-05T20:50:12.360Z,2.08
2022-08-05T20:53:16.051Z,4.60
2022-08-05T20:56:42.112Z,2.38
2022-08-05T20:59:46.329Z,2.50
2022-08-05T21:03:08.115Z,2.13
2022-08-05T21:06:27.856Z,4.68
2022-08-05T21:09:31.151Z,3.35
2022-08-05T21:12:36.986Z,1.98
2022-08-05T21:15:41.623Z,2.63
2022-08-05T21:18:48.770Z,3.05
2022-08-05T21:21:52.677Z,3.22
2022-08-05T21:24:55.227Z,5.03
2022-08-05T21:27:57.747Z,2.80
2022-08-05T21:31:00.347Z,5.90
2022-08-05T21:34:02.870Z,2.50
2022-08-05T21:37:08.731Z,5.30
2022-08-05T21:40:13.031Z,6.30
2022-08-05T21:43:24.534Z,3.60
2022-08-05T21:46:28.689Z,3.35
2022-08-05T21:50:00.348Z,2.92
2022-08-05T21:52:59.099Z,4.88
2022-08-05T21:56:16.483Z,4.07
2022-08-05T21:59:23.904Z,3.40
2022-08-05T22:02:27.603Z,3.90
2022-08-05T22:05:30.333Z,4.60
2022-08-05T22:08:53.050Z,2.95
2022-08-05T22:11:55.558Z,3.42
2022-08-05T22:14:59.573Z,6.72
2022-08-05T22:18:02.679Z,3.33
2022-08-05T22:21:05.417Z,3.10
2022-08-05T22:24:51.853Z,2.38
2022-08-05T22:28:09.062Z,2.65
2022-08-05T22:31:14.398Z,3.50
2022-08-05T22:34:25.510Z,4.80
2022-08-05T22:37:59.292Z,4.07
2022-08-05T22:40:55.498Z,3.92
2022-08-05T22:43:59.277Z,3.08
2022-08-05T22:47:05.902Z,4.97
2022-08-05T22:50:19.514Z,2.72
2022-08-05T22:53:27.067Z,2.92
2022-08-05T22:56:39.846Z,5.50
2022-08-05T22:59:51.828Z,5.03
2022-08-05T23:02:56.694Z,4.65
2022-08-05T23:06:01.014Z,3.80
2022-08-05T23:09:27.122Z,5.15
2022-08-05T23:12:32.920Z,4.07
2022-08-05T23:15:36.458Z,4.93
2022-08-05T23:18:39.158Z,3.42
2022-08-05T23:21:48.320Z,3.20
2022-08-05T23:24:51.525Z,3.95
2022-08-05T23:28:00.249Z,3.72
2022-08-05T23:31:16.177Z,5.45
2022-08-05T23:34:24.303Z,4.70
2022-08-05T23:37:34.256Z,3.00
2022-08-05T23:44:06.297Z,4.25
2022-08-05T23:47:15.630Z,3.88
2022-08-05T23:50:20.276Z,3.58
2022-08-05T23:53:23.337Z,3.97
2022-08-05T23:56:31.066Z,2.33
